Portada
METAR-TAF:

METAR-TAF

Aeroports :

Saint-Denis, Reunió

latitud: 20-53S, longitud: 055-31E, altitud: 21 m

Observació

L'informe es va fer fa 25 minuts, a les 11:00 UTC
Vent 16 kt del Est
Temperatura 27°C
Humitat 58%
Pressió 1020 hPa
Visibilitat 10 km o més
Cel ennuvolat a una alçada de 4100 ft
Cel ennuvolat a una alçada de 5400 ft

METAR: FMEE 251100Z AUTO 08016KT 9999 BKN041 BKN054 27/18 Q1020 TEMPO 10015G25KT

Hora: 15:25 (11:25 UTC)

Pronòstic

L'informe es va fer fa 6 hores i 25 minuts, a les 05:00 UTC
Pronòstic vàlid del 25 a les 06 UTC al 26 a les 12 UTC
Vent 15 kt del Est
Visibilitat 10 km o més
Núvols disperses a una alçada de 5000 ft
Temporalment
l' 25 a les 06 UTC al 25 a les 14 UTC
Vent 15 kt del Est amb ràfegues de 25 kt

TAF: FMEE 250500Z 2506/2612 08015KT 9999 SCT050 TEMPO 2506/2514 10015G25KT

Observacions i pronòstics meteorològics de més de 4000 aeroports (METAR i TAF).

Les estacions disponibles són els punts grocs i vermells al mapa.

Posi el ratolí al punt desitjat per veure el nom de l'estació.

Feu clic per veure les observacions i els pronòstics meteorològics.

Per canviar el mapa: feu clic els botons verds amb una creu de color negre per apropar; al botó verd amb un guió per allunyar la imatge; o en les fletxes verdes per a mapes adjacents.


METAR-TAF: